Time;durP1;ratioP1;P1;durP2;ratioP2;P2;SDS_P1;SDS_P2;PMS_P1;PMS_P2;Temp;Humidity;BMP_temperature;BMP_pressure;BME280_temperature;BME280_humidity;BME280_pressure;Samples;Min_cycle;Max_cycle;Signal;HPM_P1;HPM_P2
2024/03/30 00:02:27;;;;;;;1.95;1.20;;;;;;;;;;5054774;28;20406;-56
2024/03/30 00:04:54;;;;;;;2.00;1.50;;;;;;;;;;5055243;28;20501;-56
2024/03/30 00:07:21;;;;;;;1.48;1.00;;;;;;;;;;5046176;28;20064;-56
2024/03/30 00:09:47;;;;;;;2.55;1.42;;;;;;;;;;5055180;28;20410;-57
2024/03/30 00:12:14;;;;;;;3.25;1.40;;;;;;;;;;5047095;28;20053;-57
2024/03/30 00:14:40;;;;;;;2.67;1.55;;;;;;;;;;5054635;28;20053;-55
2024/03/30 00:17:07;;;;;;;1.80;1.25;;;;;;;;;;5046725;28;20053;-56
2024/03/30 00:19:32;;;;;;;1.55;0.95;;;;;;;;;;5054981;28;20148;-57
2024/03/30 00:22:00;;;;;;;3.45;2.25;;;;;;;;;;5046839;28;20055;-56
2024/03/30 00:24:26;;;;;;;3.53;2.20;;;;;;;;;;5054521;28;20045;-56
2024/03/30 00:26:53;;;;;;;3.75;2.00;;;;;;;;;;5046569;28;20056;-57
2024/03/30 00:29:19;;;;;;;2.20;1.40;;;;;;;;;;5054769;28;20057;-57
2024/03/30 00:31:46;;;;;;;1.95;1.50;;;;;;;;;;5046421;28;20393;-57
2024/03/30 00:34:11;;;;;;;2.58;1.73;;;;;;;;;;5054507;28;20486;-57
2024/03/30 00:36:38;;;;;;;2.55;1.60;;;;;;;;;;5046322;28;20049;-57
2024/03/30 00:39:07;;;;;;;3.75;1.77;;;;;;;;;;5054540;28;20053;-57
2024/03/30 00:41:34;;;;;;;3.05;2.00;;;;;;;;;;5046187;28;20082;-57
2024/03/30 00:44:00;;;;;;;2.13;1.50;;;;;;;;;;5054950;28;20395;-57
2024/03/30 00:46:27;;;;;;;2.28;1.70;;;;;;;;;;5045973;28;20099;-57
2024/03/30 00:48:52;;;;;;;2.80;1.52;;;;;;;;;;5054302;28;20057;-57
2024/03/30 00:51:19;;;;;;;2.90;1.70;;;;;;;;;;5054319;28;20056;-57
2024/03/30 00:53:45;;;;;;;2.35;1.55;;;;;;;;;;5054387;28;20064;-57
2024/03/30 00:56:13;;;;;;;2.88;1.80;;;;;;;;;;5045471;28;20483;-56
2024/03/30 00:58:39;;;;;;;2.85;1.77;;;;;;;;;;5054088;28;20495;-57
2024/03/30 01:01:08;;;;;;;2.67;1.80;;;;;;;;;;5045395;28;20088;-57
2024/03/30 01:03:34;;;;;;;2.97;2.05;;;;;;;;;;5054205;28;20053;-57
2024/03/30 01:06:01;;;;;;;2.13;1.70;;;;;;;;;;5046169;28;20494;-57
2024/03/30 01:08:27;;;;;;;2.17;1.80;;;;;;;;;;5045833;28;20494;-57
2024/03/30 01:10:57;;;;;;;3.22;1.80;;;;;;;;;;5046954;28;20099;-57
2024/03/30 01:13:25;;;;;;;2.10;1.52;;;;;;;;;;5053502;28;20057;-57
2024/03/30 01:15:52;;;;;;;2.67;1.95;;;;;;;;;;5046442;28;20053;-57
2024/03/30 01:18:18;;;;;;;3.90;2.50;;;;;;;;;;5053031;28;20068;-57
2024/03/30 01:20:45;;;;;;;4.93;3.05;;;;;;;;;;5047761;28;20379;-57
2024/03/30 01:23:11;;;;;;;5.35;3.65;;;;;;;;;;5051973;28;20139;-57
2024/03/30 01:25:38;;;;;;;5.13;2.67;;;;;;;;;;5048728;28;20052;-57
2024/03/30 01:28:06;;;;;;;4.20;2.55;;;;;;;;;;5050616;28;20513;-57
2024/03/30 01:30:34;;;;;;;4.10;2.90;;;;;;;;;;5049194;28;20049;-57
2024/03/30 01:33:00;;;;;;;3.50;2.50;;;;;;;;;;5049883;28;20049;-57
2024/03/30 01:35:27;;;;;;;2.85;2.45;;;;;;;;;;5050041;28;20053;-57
2024/03/30 01:37:53;;;;;;;3.80;2.30;;;;;;;;;;5048996;28;20063;-57
2024/03/30 01:40:20;;;;;;;3.33;2.05;;;;;;;;;;5050859;28;20048;-57
2024/03/30 01:42:46;;;;;;;3.72;2.47;;;;;;;;;;5048156;28;20379;-57
2024/03/30 01:45:13;;;;;;;2.97;2.00;;;;;;;;;;5051779;28;20056;-57
2024/03/30 01:47:40;;;;;;;3.10;2.40;;;;;;;;;;5046659;28;20056;-57
2024/03/30 01:50:07;;;;;;;3.08;1.80;;;;;;;;;;5052730;28;20053;-57
2024/03/30 01:52:34;;;;;;;3.60;2.13;;;;;;;;;;5053076;28;20068;-56
2024/03/30 01:55:02;;;;;;;3.22;1.80;;;;;;;;;;5052796;28;20064;-57
2024/03/30 01:57:28;;;;;;;3.10;1.98;;;;;;;;;;5053278;28;20053;-57
2024/03/30 01:59:55;;;;;;;2.67;1.88;;;;;;;;;;5052691;28;20052;-57
2024/03/30 02:02:23;;;;;;;4.63;1.95;;;;;;;;;;5045095;28;20067;-57
2024/03/30 02:04:52;;;;;;;3.03;2.20;;;;;;;;;;5053133;28;20056;-57
2024/03/30 02:07:18;;;;;;;3.38;2.25;;;;;;;;;;5044186;28;20056;-57
2024/03/30 02:09:45;;;;;;;2.58;1.98;;;;;;;;;;5052529;28;20498;-56
2024/03/30 02:12:10;;;;;;;4.22;2.80;;;;;;;;;;5045053;28;20053;-57
2024/03/30 02:14:37;;;;;;;2.38;2.08;;;;;;;;;;5052774;28;20473;-57
2024/03/30 02:17:03;;;;;;;3.05;2.65;;;;;;;;;;5044737;28;20091;-57
2024/03/30 02:19:32;;;;;;;3.08;2.50;;;;;;;;;;5052483;28;20049;-57
2024/03/30 02:22:00;;;;;;;2.90;2.60;;;;;;;;;;5044784;28;20053;-57
2024/03/30 02:24:28;;;;;;;3.42;2.50;;;;;;;;;;5052715;28;20064;-57
2024/03/30 02:26:54;;;;;;;5.65;3.00;;;;;;;;;;5044736;28;20056;-57
2024/03/30 02:29:22;;;;;;;3.80;2.70;;;;;;;;;;5052691;28;20481;-57
2024/03/30 02:31:48;;;;;;;3.20;2.38;;;;;;;;;;5044809;28;20049;-57
2024/03/30 02:34:14;;;;;;;4.75;3.20;;;;;;;;;;5052718;28;20497;-57
2024/03/30 02:36:40;;;;;;;4.22;2.83;;;;;;;;;;5044531;28;20515;-57
2024/03/30 02:39:07;;;;;;;4.22;2.97;;;;;;;;;;5052281;28;20048;-57
2024/03/30 02:41:34;;;;;;;4.95;3.00;;;;;;;;;;5043663;28;20057;-57
2024/03/30 02:44:01;;;;;;;4.10;2.80;;;;;;;;;;5052505;28;20057;-57
2024/03/30 02:46:27;;;;;;;3.65;2.58;;;;;;;;;;5044269;28;20388;-57
2024/03/30 02:48:54;;;;;;;3.35;2.70;;;;;;;;;;5052507;28;20083;-57
2024/03/30 02:51:19;;;;;;;3.15;2.55;;;;;;;;;;5052421;28;20053;-57
2024/03/30 02:53:46;;;;;;;3.08;2.30;;;;;;;;;;5052414;28;20451;-57
2024/03/30 02:56:12;;;;;;;2.75;2.25;;;;;;;;;;5044125;28;20057;-58
2024/03/30 02:58:40;;;;;;;3.10;2.20;;;;;;;;;;5052481;28;20132;-57
2024/03/30 03:01:06;;;;;;;3.53;2.70;;;;;;;;;;5043936;28;20049;-57
2024/03/30 03:03:33;;;;;;;3.08;2.70;;;;;;;;;;5051901;28;20391;-57
2024/03/30 03:05:59;;;;;;;2.83;2.50;;;;;;;;;;5043912;28;20049;-57
2024/03/30 03:08:27;;;;;;;3.13;2.10;;;;;;;;;;5043393;28;20052;-57
2024/03/30 03:10:53;;;;;;;3.05;2.50;;;;;;;;;;5045408;28;20060;-57
2024/03/30 03:13:20;;;;;;;2.90;2.20;;;;;;;;;;5051500;28;20049;-57
2024/03/30 03:15:47;;;;;;;3.75;2.58;;;;;;;;;;5051783;28;20053;-57
2024/03/30 03:18:13;;;;;;;2.65;2.22;;;;;;;;;;5052469;28;20075;-57
2024/03/30 03:20:40;;;;;;;2.78;2.30;;;;;;;;;;5051043;28;20061;-57
2024/03/30 03:23:07;;;;;;;2.95;2.42;;;;;;;;;;5053528;28;20048;-57
2024/03/30 03:25:33;;;;;;;2.70;2.40;;;;;;;;;;5051666;28;20073;-57
2024/03/30 03:28:00;;;;;;;2.83;2.30;;;;;;;;;;5052542;28;20053;-57
2024/03/30 03:30:26;;;;;;;2.88;2.60;;;;;;;;;;5052629;28;20592;-57
2024/03/30 03:32:54;;;;;;;3.90;2.40;;;;;;;;;;5050842;28;20056;-57
2024/03/30 03:35:20;;;;;;;3.05;2.13;;;;;;;;;;5052976;28;20049;-57
2024/03/30 03:37:47;;;;;;;2.38;1.92;;;;;;;;;;5050087;28;20118;-57
2024/03/30 03:40:12;;;;;;;2.88;2.47;;;;;;;;;;5054117;28;20068;-57
2024/03/30 03:42:39;;;;;;;3.25;2.60;;;;;;;;;;5049191;28;20053;-58
2024/03/30 03:45:05;;;;;;;3.45;2.45;;;;;;;;;;5055097;28;20505;-57
2024/03/30 03:47:32;;;;;;;4.25;2.95;;;;;;;;;;5047943;28;20053;-57
2024/03/30 03:50:00;;;;;;;4.35;3.20;;;;;;;;;;5055569;28;20052;-57
2024/03/30 03:52:27;;;;;;;4.55;3.40;;;;;;;;;;5055371;28;20049;-57
2024/03/30 03:54:53;;;;;;;4.10;3.70;;;;;;;;;;5055654;28;20049;-57
2024/03/30 03:57:20;;;;;;;4.10;3.70;;;;;;;;;;5047360;28;20106;-57
2024/03/30 03:59:45;;;;;;;3.70;3.20;;;;;;;;;;5055747;28;20061;-57
2024/03/30 04:02:12;;;;;;;4.10;3.55;;;;;;;;;;5046979;28;20131;-57
2024/03/30 04:04:38;;;;;;;3.83;3.10;;;;;;;;;;5055330;28;20517;-57
2024/03/30 04:07:06;;;;;;;5.78;3.20;;;;;;;;;;5047080;28;20044;-57
2024/03/30 04:09:32;;;;;;;4.30;3.50;;;;;;;;;;5054998;28;20053;-58
2024/03/30 04:11:59;;;;;;;4.20;3.17;;;;;;;;;;5047099;28;20091;-57
2024/03/30 04:14:25;;;;;;;5.20;3.50;;;;;;;;;;5054860;28;20064;-57
2024/03/30 04:16:51;;;;;;;3.25;2.95;;;;;;;;;;5046450;28;20049;-57
2024/03/30 04:19:17;;;;;;;3.58;2.85;;;;;;;;;;5054768;28;20044;-57
2024/03/30 04:21:44;;;;;;;5.10;3.55;;;;;;;;;;5047088;28;20053;-57
2024/03/30 04:24:11;;;;;;;3.80;3.25;;;;;;;;;;5054713;28;20139;-57
2024/03/30 04:26:39;;;;;;;3.67;3.15;;;;;;;;;;5047116;28;20056;-57
2024/03/30 04:29:04;;;;;;;3.78;3.33;;;;;;;;;;5055448;28;20061;-56
2024/03/30 04:31:31;;;;;;;4.38;3.40;;;;;;;;;;5046162;28;20136;-57
2024/03/30 04:33:57;;;;;;;4.50;3.55;;;;;;;;;;5055166;28;20053;-57
2024/03/30 04:36:24;;;;;;;4.40;3.20;;;;;;;;;;5046872;28;20053;-56
2024/03/30 04:38:51;;;;;;;3.78;3.17;;;;;;;;;;5054457;28;20075;-57
2024/03/30 04:41:18;;;;;;;4.20;3.50;;;;;;;;;;5046169;28;20061;-57
2024/03/30 04:43:44;;;;;;;4.43;3.22;;;;;;;;;;5054722;28;20059;-56
2024/03/30 04:46:12;;;;;;;5.65;3.72;;;;;;;;;;5046366;28;20045;-57
2024/03/30 04:48:39;;;;;;;4.20;3.42;;;;;;;;;;5054111;28;20060;-57
2024/03/30 04:51:05;;;;;;;3.17;2.90;;;;;;;;;;5054878;28;20497;-57
2024/03/30 04:53:32;;;;;;;4.18;3.60;;;;;;;;;;5054399;28;20048;-57
2024/03/30 04:55:59;;;;;;;3.58;3.28;;;;;;;;;;5046136;28;20060;-57
2024/03/30 04:58:28;;;;;;;3.60;3.17;;;;;;;;;;5046065;28;20475;-57
2024/03/30 05:00:54;;;;;;;4.50;3.60;;;;;;;;;;5047013;28;20434;-57
2024/03/30 05:03:21;;;;;;;4.82;3.55;;;;;;;;;;5053198;28;20049;-57
2024/03/30 05:05:47;;;;;;;4.20;3.20;;;;;;;;;;5048162;28;20057;-56
2024/03/30 05:08:15;;;;;;;5.28;3.38;;;;;;;;;;5052131;28;20049;-57
2024/03/30 05:10:41;;;;;;;4.55;3.22;;;;;;;;;;5048699;28;20061;-57
2024/03/30 05:13:08;;;;;;;4.00;3.60;;;;;;;;;;5051307;28;20056;-56
2024/03/30 05:15:36;;;;;;;4.68;3.40;;;;;;;;;;5049320;28;20382;-56
2024/03/30 05:18:03;;;;;;;4.45;3.20;;;;;;;;;;5050652;28;20057;-57
2024/03/30 05:20:49;;;;;;;5.10;3.20;;;;;;;;;;5049875;28;20057;-57
2024/03/30 05:23:16;;;;;;;4.05;3.35;;;;;;;;;;5052549;28;20402;-56
2024/03/30 05:25:43;;;;;;;3.13;2.78;;;;;;;;;;5048106;28;20053;-57
2024/03/30 05:28:10;;;;;;;3.92;3.40;;;;;;;;;;5051169;28;20053;-57
2024/03/30 05:30:38;;;;;;;5.05;3.53;;;;;;;;;;5048820;28;20050;-57
2024/03/30 05:33:04;;;;;;;3.85;3.38;;;;;;;;;;5051021;28;20057;-57
2024/03/30 05:35:31;;;;;;;4.30;3.80;;;;;;;;;;5049496;28;20103;-57
2024/03/30 05:37:57;;;;;;;4.15;3.25;;;;;;;;;;5049507;28;20491;-57
2024/03/30 05:40:24;;;;;;;5.05;3.10;;;;;;;;;;5050157;28;20053;-57
2024/03/30 05:42:50;;;;;;;3.25;2.95;;;;;;;;;;5047563;28;20397;-57
2024/03/30 05:45:17;;;;;;;3.65;3.25;;;;;;;;;;5051304;28;20048;-56
2024/03/30 05:47:44;;;;;;;4.20;3.00;;;;;;;;;;5047529;28;20057;-56
2024/03/30 05:50:11;;;;;;;7.32;3.38;;;;;;;;;;5051770;28;20059;-56
2024/03/30 05:52:37;;;;;;;4.30;3.33;;;;;;;;;;5046337;28;20056;-57
2024/03/30 05:55:04;;;;;;;3.85;3.38;;;;;;;;;;5052684;28;20063;-57
2024/03/30 05:57:30;;;;;;;3.83;3.10;;;;;;;;;;5045012;28;20478;-57
2024/03/30 05:59:56;;;;;;;4.25;3.30;;;;;;;;;;5052994;28;20053;-56
2024/03/30 06:02:22;;;;;;;4.18;3.20;;;;;;;;;;5045073;28;20060;-57
2024/03/30 06:04:51;;;;;;;5.55;3.15;;;;;;;;;;5052968;28;20053;-57
2024/03/30 06:07:16;;;;;;;4.45;2.80;;;;;;;;;;5045163;28;20049;-56
2024/03/30 06:09:43;;;;;;;5.93;3.50;;;;;;;;;;5052778;28;20053;-56
2024/03/30 06:12:09;;;;;;;3.80;3.40;;;;;;;;;;5044501;28;20049;-57
2024/03/30 06:14:36;;;;;;;7.25;4.93;;;;;;;;;;5052408;28;20072;-57
2024/03/30 06:17:02;;;;;;;6.47;4.78;;;;;;;;;;5044582;28;20410;-57
2024/03/30 06:19:28;;;;;;;7.63;5.57;;;;;;;;;;5052525;28;20060;-57
2024/03/30 06:21:56;;;;;;;5.53;4.70;;;;;;;;;;5044416;28;20489;-57
2024/03/30 06:24:22;;;;;;;6.20;4.40;;;;;;;;;;5052378;28;20513;-57
2024/03/30 06:26:48;;;;;;;7.13;4.50;;;;;;;;;;5044772;28;20112;-57
2024/03/30 06:29:15;;;;;;;5.57;4.03;;;;;;;;;;5052172;28;20049;-57
2024/03/30 06:31:41;;;;;;;6.68;5.85;;;;;;;;;;5044576;28;20064;-57
2024/03/30 06:34:08;;;;;;;5.80;5.15;;;;;;;;;;5052904;28;20120;-57
2024/03/30 06:36:33;;;;;;;5.30;4.65;;;;;;;;;;5043758;28;20048;-57
2024/03/30 06:39:02;;;;;;;5.93;3.88;;;;;;;;;;5052087;28;20127;-57
2024/03/30 06:44:12;;;;;;;6.20;4.15;;;;;;;;;;5058592;28;20403;-57
2024/03/30 06:46:39;;;;;;;5.72;4.28;;;;;;;;;;5044029;28;20052;-57
2024/03/30 06:49:06;;;;;;;3.65;2.85;;;;;;;;;;5051794;28;20057;-57
2024/03/30 06:51:33;;;;;;;7.25;2.28;;;;;;;;;;5044163;28;20519;-57
2024/03/30 06:53:59;;;;;;;11.35;2.67;;;;;;;;;;5051364;28;20138;-57
2024/03/30 06:56:27;;;;;;;8.55;2.10;;;;;;;;;;5043806;28;20060;-58
2024/03/30 06:58:54;;;;;;;9.07;1.90;;;;;;;;;;5052011;28;20495;-57
2024/03/30 07:01:19;;;;;;;11.48;2.30;;;;;;;;;;5043842;28;20054;-57
2024/03/30 07:03:46;;;;;;;13.13;2.35;;;;;;;;;;5051933;28;20053;-56
2024/03/30 07:06:12;;;;;;;9.07;2.38;;;;;;;;;;5044088;28;20415;-57
2024/03/30 07:08:39;;;;;;;9.27;2.42;;;;;;;;;;5052304;28;20060;-57
2024/03/30 07:11:05;;;;;;;12.38;2.25;;;;;;;;;;5052460;28;20501;-57
2024/03/30 07:13:33;;;;;;;7.88;2.20;;;;;;;;;;5052250;28;20049;-57
2024/03/30 07:16:00;;;;;;;9.00;2.08;;;;;;;;;;5044038;28;20498;-57
2024/03/30 07:18:26;;;;;;;11.32;2.45;;;;;;;;;;5043510;28;20063;-57
2024/03/30 07:20:53;;;;;;;8.35;1.88;;;;;;;;;;5044963;28;20402;-57
2024/03/30 07:23:20;;;;;;;9.25;1.98;;;;;;;;;;5051106;28;20398;-57
2024/03/30 07:25:47;;;;;;;9.18;2.17;;;;;;;;;;5045442;28;20053;-57
2024/03/30 07:28:13;;;;;;;9.13;2.00;;;;;;;;;;5050112;28;20394;-57
2024/03/30 07:30:43;;;;;;;10.18;2.10;;;;;;;;;;5046191;28;20052;-57
2024/03/30 07:33:09;;;;;;;8.10;2.28;;;;;;;;;;5049950;28;20057;-57
2024/03/30 07:35:36;;;;;;;10.77;2.40;;;;;;;;;;5047214;28;20408;-57
2024/03/30 07:38:02;;;;;;;7.78;1.83;;;;;;;;;;5048296;28;20049;-57
2024/03/30 07:40:29;;;;;;;8.55;2.28;;;;;;;;;;5047427;28;20056;-57
2024/03/30 07:42:55;;;;;;;10.88;2.20;;;;;;;;;;5047483;28;20057;-57
2024/03/30 07:45:22;;;;;;;7.20;1.70;;;;;;;;;;5048831;28;20057;-57
2024/03/30 07:47:49;;;;;;;9.68;2.00;;;;;;;;;;5046107;28;20049;-57
2024/03/30 07:50:17;;;;;;;9.70;2.75;;;;;;;;;;5051783;28;20521;-56
2024/03/30 07:52:45;;;;;;;8.57;1.90;;;;;;;;;;5051437;28;20057;-58
2024/03/30 07:55:12;;;;;;;6.72;2.42;;;;;;;;;;5050247;28;20060;-58
2024/03/30 07:57:38;;;;;;;6.85;2.30;;;;;;;;;;5044682;28;20049;-58
2024/03/30 08:00:05;;;;;;;9.90;2.13;;;;;;;;;;5050745;28;20053;-58
2024/03/30 08:02:31;;;;;;;8.93;2.30;;;;;;;;;;5043905;28;20053;-58
2024/03/30 08:04:59;;;;;;;11.65;2.00;;;;;;;;;;5051701;28;20049;-58
2024/03/30 08:07:25;;;;;;;10.23;1.70;;;;;;;;;;5054665;28;20491;-58
2024/03/30 08:09:52;;;;;;;10.27;2.20;;;;;;;;;;5055165;28;20098;-58
2024/03/30 08:12:18;;;;;;;7.13;1.88;;;;;;;;;;5047038;28;20056;-58
2024/03/30 08:14:44;;;;;;;12.38;2.20;;;;;;;;;;5054935;28;20509;-58
2024/03/30 08:17:10;;;;;;;9.93;2.20;;;;;;;;;;5047251;28;20053;-58
2024/03/30 08:19:37;;;;;;;8.32;2.58;;;;;;;;;;5054308;28;20110;-57
2024/03/30 08:22:04;;;;;;;9.50;2.60;;;;;;;;;;5046502;28;20049;-58
2024/03/30 08:24:32;;;;;;;6.97;2.38;;;;;;;;;;5054661;28;20053;-58
2024/03/30 08:26:58;;;;;;;15.18;2.88;;;;;;;;;;5046592;28;20048;-58
2024/03/30 08:29:24;;;;;;;16.80;3.03;;;;;;;;;;5054925;28;20376;-58
2024/03/30 08:31:50;;;;;;;13.60;3.42;;;;;;;;;;5046674;28;20053;-58
2024/03/30 08:34:17;;;;;;;13.50;3.17;;;;;;;;;;5054225;28;20057;-57
2024/03/30 08:36:43;;;;;;;14.68;3.00;;;;;;;;;;5046710;28;20048;-58
2024/03/30 08:39:11;;;;;;;12.98;2.85;;;;;;;;;;5054659;28;20052;-58
2024/03/30 08:41:37;;;;;;;14.90;3.47;;;;;;;;;;5046257;28;20057;-58
2024/03/30 08:44:05;;;;;;;16.45;3.05;;;;;;;;;;5054605;28;20372;-58
2024/03/30 08:46:31;;;;;;;15.55;3.35;;;;;;;;;;5045815;28;20061;-58
2024/03/30 08:49:02;;;;;;;15.20;3.33;;;;;;;;;;5054316;28;20082;-58
2024/03/30 08:51:28;;;;;;;17.17;4.03;;;;;;;;;;5054499;28;20509;-58
2024/03/30 08:54:00;;;;;;;16.60;3.38;;;;;;;;;;5053945;28;20048;-58
2024/03/30 08:56:27;;;;;;;20.90;3.60;;;;;;;;;;5046053;28;20462;-58
2024/03/30 08:58:53;;;;;;;22.17;4.13;;;;;;;;;;5054222;28;20410;-58
2024/03/30 09:01:19;;;;;;;20.58;4.30;;;;;;;;;;5046023;28;20056;-58
2024/03/30 09:03:46;;;;;;;20.20;3.65;;;;;;;;;;5054921;28;20049;-58
2024/03/30 09:06:12;;;;;;;17.48;4.05;;;;;;;;;;5046483;28;20054;-58
2024/03/30 09:08:39;;;;;;;23.42;4.00;;;;;;;;;;5053479;28;20041;-58
2024/03/30 09:11:05;;;;;;;19.42;4.28;;;;;;;;;;5046155;28;20498;-58
2024/03/30 09:13:33;;;;;;;27.25;4.80;;;;;;;;;;5054024;28;20049;-58
2024/03/30 09:15:59;;;;;;;21.98;4.38;;;;;;;;;;5046199;28;20137;-58
2024/03/30 09:18:26;;;;;;;16.80;3.60;;;;;;;;;;5045766;28;20084;-58
2024/03/30 09:20:51;;;;;;;16.15;3.13;;;;;;;;;;5046949;28;20049;-58
2024/03/30 09:23:18;;;;;;;18.63;3.75;;;;;;;;;;5052466;28;20056;-58
2024/03/30 09:25:44;;;;;;;14.02;3.65;;;;;;;;;;5047572;28;20061;-58
2024/03/30 09:28:11;;;;;;;18.52;4.13;;;;;;;;;;5050811;28;20482;-58
2024/03/30 09:30:38;;;;;;;12.18;3.22;;;;;;;;;;5048659;28;20064;-58
2024/03/30 09:33:05;;;;;;;16.33;3.78;;;;;;;;;;5050412;28;20076;-58
2024/03/30 09:35:31;;;;;;;18.25;3.63;;;;;;;;;;5049401;28;20505;-59
2024/03/30 09:37:57;;;;;;;15.50;3.50;;;;;;;;;;5049021;28;20131;-58
2024/03/30 09:40:23;;;;;;;24.50;3.90;;;;;;;;;;5050379;28;20049;-59
2024/03/30 09:42:50;;;;;;;18.77;3.58;;;;;;;;;;5047866;28;20055;-58
2024/03/30 09:45:17;;;;;;;20.38;4.18;;;;;;;;;;5051238;28;20152;-58
2024/03/30 09:47:47;;;;;;;17.10;3.97;;;;;;;;;;5047487;28;20076;-58
2024/03/30 09:50:13;;;;;;;16.92;3.38;;;;;;;;;;5053596;28;20136;-58
2024/03/30 09:52:40;;;;;;;20.40;4.15;;;;;;;;;;5053165;28;20063;-58
2024/03/30 09:55:10;;;;;;;17.75;3.80;;;;;;;;;;5053685;28;20059;-58
2024/03/30 09:57:39;;;;;;;20.25;3.97;;;;;;;;;;5053051;28;20060;-58
2024/03/30 10:00:06;;;;;;;26.42;4.65;;;;;;;;;;5052729;28;20056;-58
2024/03/30 10:02:33;;;;;;;31.50;5.03;;;;;;;;;;5052987;28;20478;-58
2024/03/30 10:05:00;;;;;;;28.60;5.05;;;;;;;;;;5053062;28;20391;-58
2024/03/30 10:07:28;;;;;;;27.20;5.22;;;;;;;;;;5052806;28;20414;-59
2024/03/30 10:09:58;;;;;;;28.45;6.20;;;;;;;;;;5052687;28;20056;-58
2024/03/30 10:12:30;;;;;;;34.35;5.70;;;;;;;;;;5044853;28;20048;-58
2024/03/30 10:14:59;;;;;;;30.40;6.05;;;;;;;;;;5052956;28;20057;-58
2024/03/30 10:17:26;;;;;;;37.55;6.60;;;;;;;;;;5052771;28;20372;-58
2024/03/30 10:19:52;;;;;;;28.27;5.43;;;;;;;;;;5052297;28;20053;-58
2024/03/30 10:22:20;;;;;;;35.63;6.15;;;;;;;;;;5044133;28;20458;-59
2024/03/30 10:24:46;;;;;;;39.88;5.88;;;;;;;;;;5052240;28;20068;-58
2024/03/30 10:27:13;;;;;;;37.25;6.78;;;;;;;;;;5044396;28;20394;-58
2024/03/30 10:29:38;;;;;;;42.60;7.22;;;;;;;;;;5051972;28;20064;-58
2024/03/30 10:32:06;;;;;;;25.95;5.90;;;;;;;;;;5052469;28;20044;-58
2024/03/30 10:34:32;;;;;;;27.70;6.45;;;;;;;;;;5052420;28;20422;-58
2024/03/30 10:36:59;;;;;;;35.92;7.05;;;;;;;;;;5044428;28;20053;-58
2024/03/30 10:39:28;;;;;;;35.97;7.30;;;;;;;;;;5052507;28;20503;-58
2024/03/30 10:41:55;;;;;;;30.13;6.40;;;;;;;;;;5044170;28;20135;-58
2024/03/30 10:44:24;;;;;;;33.33;7.00;;;;;;;;;;5052419;28;20052;-59
2024/03/30 10:46:52;;;;;;;36.50;7.38;;;;;;;;;;5043593;28;20068;-58
2024/03/30 10:49:18;;;;;;;34.55;6.70;;;;;;;;;;5052115;28;20045;-59
2024/03/30 10:51:45;;;;;;;31.95;6.82;;;;;;;;;;5051878;28;20049;-59
2024/03/30 10:54:13;;;;;;;36.53;6.93;;;;;;;;;;5052469;28;20057;-58
2024/03/30 10:56:47;;;;;;;36.80;6.87;;;;;;;;;;5044130;28;20057;-59
2024/03/30 10:59:15;;;;;;;40.42;7.30;;;;;;;;;;5051889;28;20052;-59
2024/03/30 11:01:43;;;;;;;39.22;7.00;;;;;;;;;;5044166;28;20052;-59
2024/03/30 11:04:11;;;;;;;32.53;5.70;;;;;;;;;;5052267;28;20401;-58
2024/03/30 11:06:38;;;;;;;39.83;6.70;;;;;;;;;;5044394;28;20049;-57
2024/03/30 11:09:05;;;;;;;35.60;6.93;;;;;;;;;;5052228;28;20045;-58
2024/03/30 11:11:31;;;;;;;34.33;6.68;;;;;;;;;;5052381;28;20470;-59
2024/03/30 11:13:59;;;;;;;42.00;7.40;;;;;;;;;;5052207;28;20053;-58
2024/03/30 11:16:27;;;;;;;33.08;6.72;;;;;;;;;;5043996;28;20064;-58
2024/03/30 11:18:57;;;;;;;41.10;6.87;;;;;;;;;;5052206;28;20045;-59
2024/03/30 11:21:27;;;;;;;32.17;5.95;;;;;;;;;;5043465;28;20048;-59
2024/03/30 11:23:56;;;;;;;33.28;6.22;;;;;;;;;;5051722;28;20064;-58
2024/03/30 11:26:23;;;;;;;30.95;5.63;;;;;;;;;;5043767;28;20056;-58
2024/03/30 11:28:54;;;;;;;33.75;5.75;;;;;;;;;;5051975;28;20049;-59
2024/03/30 11:31:37;;;;;;;35.13;5.88;;;;;;;;;;5043987;28;20476;-58
2024/03/30 11:34:04;;;;;;;33.03;5.95;;;;;;;;;;5052163;28;20057;-58
2024/03/30 11:36:35;;;;;;;20.08;4.95;;;;;;;;;;5043747;28;20382;-58
2024/03/30 11:39:14;;;;;;;35.47;6.57;;;;;;;;;;5051747;28;20053;-58
2024/03/30 11:41:44;;;;;;;24.92;5.72;;;;;;;;;;5047278;28;20501;-59
2024/03/30 11:44:10;;;;;;;33.88;6.03;;;;;;;;;;5055350;28;20080;-58
2024/03/30 11:46:39;;;;;;;27.95;5.97;;;;;;;;;;5046959;28;20057;-58
2024/03/30 11:49:05;;;;;;;28.02;6.07;;;;;;;;;;5055321;28;20049;-58
2024/03/30 11:51:32;;;;;;;28.38;5.97;;;;;;;;;;5055335;28;20052;-58
2024/03/30 11:53:58;;;;;;;33.33;6.07;;;;;;;;;;5055181;28;20418;-58
2024/03/30 11:56:33;;;;;;;29.65;6.45;;;;;;;;;;5047219;28;20045;-58
2024/03/30 11:59:00;;;;;;;43.40;7.00;;;;;;;;;;5054907;28;20052;-58
2024/03/30 12:01:27;;;;;;;30.83;6.40;;;;;;;;;;5047163;28;20052;-58
2024/03/30 12:03:54;;;;;;;39.30;6.88;;;;;;;;;;5055453;28;20068;-58
2024/03/30 12:06:22;;;;;;;37.58;6.30;;;;;;;;;;5046606;28;20080;-57
2024/03/30 12:08:47;;;;;;;47.25;7.32;;;;;;;;;;5054953;28;20056;-57
2024/03/30 12:11:15;;;;;;;32.17;6.13;;;;;;;;;;5046544;28;20433;-57
2024/03/30 12:13:42;;;;;;;35.85;6.07;;;;;;;;;;5054751;28;20467;-58
2024/03/30 12:16:08;;;;;;;48.08;7.18;;;;;;;;;;5046528;28;20376;-58
2024/03/30 12:18:35;;;;;;;31.92;5.45;;;;;;;;;;5054403;28;20056;-58
2024/03/30 12:21:03;;;;;;;38.13;7.00;;;;;;;;;;5046981;28;20061;-58
2024/03/30 12:23:29;;;;;;;35.55;6.50;;;;;;;;;;5047160;28;20049;-58
2024/03/30 12:25:59;;;;;;;27.23;6.90;;;;;;;;;;5047586;28;20386;-58
2024/03/30 12:28:25;;;;;;;38.22;7.05;;;;;;;;;;5046247;28;20487;-58
2024/03/30 12:30:52;;;;;;;33.50;6.32;;;;;;;;;;5048120;28;20057;-58
2024/03/30 12:33:18;;;;;;;38.78;7.22;;;;;;;;;;5053662;28;20059;-58
2024/03/30 12:35:46;;;;;;;33.47;6.43;;;;;;;;;;5048205;28;20053;-58
2024/03/30 12:38:14;;;;;;;30.38;6.38;;;;;;;;;;5052420;28;20422;-58
2024/03/30 12:40:42;;;;;;;32.88;7.53;;;;;;;;;;5049091;28;20049;-57
2024/03/30 12:43:11;;;;;;;41.15;8.63;;;;;;;;;;5052244;28;20299;-57
2024/03/30 12:45:38;;;;;;;35.83;7.32;;;;;;;;;;5049219;28;20049;-57
2024/03/30 12:48:04;;;;;;;33.83;7.13;;;;;;;;;;5051186;28;20410;-57
2024/03/30 12:50:31;;;;;;;29.92;6.15;;;;;;;;;;5053921;28;20056;-59
2024/03/30 12:52:58;;;;;;;32.90;6.32;;;;;;;;;;5054014;28;20402;-58
2024/03/30 12:55:26;;;;;;;32.72;5.80;;;;;;;;;;5051344;28;20414;-59
2024/03/30 12:57:52;;;;;;;36.67;6.43;;;;;;;;;;5049411;28;20406;-59
2024/03/30 13:00:20;;;;;;;30.55;6.20;;;;;;;;;;5051495;28;20079;-59
2024/03/30 13:02:51;;;;;;;28.13;6.88;;;;;;;;;;5048720;28;20056;-59
2024/03/30 13:05:18;;;;;;;34.88;6.00;;;;;;;;;;5051848;28;20048;-59
2024/03/30 13:07:44;;;;;;;33.53;6.40;;;;;;;;;;5048536;28;20057;-59
2024/03/30 13:10:11;;;;;;;29.17;5.88;;;;;;;;;;5052481;28;20163;-58
2024/03/30 13:12:38;;;;;;;38.42;7.03;;;;;;;;;;5047273;28;20049;-59
2024/03/30 13:15:05;;;;;;;31.33;5.82;;;;;;;;;;5052913;28;20053;-59
2024/03/30 13:17:31;;;;;;;34.35;6.40;;;;;;;;;;5046237;28;20609;-59
2024/03/30 13:19:59;;;;;;;34.17;6.55;;;;;;;;;;5053331;28;20045;-58
2024/03/30 13:22:25;;;;;;;24.40;6.32;;;;;;;;;;5053611;28;20056;-60
2024/03/30 13:24:52;;;;;;;43.20;6.18;;;;;;;;;;5053442;28;20084;-58
2024/03/30 13:27:18;;;;;;;41.45;7.53;;;;;;;;;;5045939;28;20049;-58
2024/03/30 13:29:46;;;;;;;39.97;7.18;;;;;;;;;;5053678;28;20049;-58
2024/03/30 13:32:12;;;;;;;35.43;5.90;;;;;;;;;;5045397;28;20057;-58
2024/03/30 13:34:40;;;;;;;37.17;6.40;;;;;;;;;;5053267;28;20463;-58
2024/03/30 13:37:06;;;;;;;38.03;7.15;;;;;;;;;;5045226;28;20060;-58
2024/03/30 13:39:33;;;;;;;38.55;6.38;;;;;;;;;;5053020;28;20441;-58
2024/03/30 13:41:59;;;;;;;33.67;6.60;;;;;;;;;;5045230;28;20076;-58
2024/03/30 13:44:26;;;;;;;33.72;6.38;;;;;;;;;;5053236;28;20053;-58
2024/03/30 13:46:53;;;;;;;36.67;7.05;;;;;;;;;;5044739;28;20057;-58
2024/03/30 13:49:20;;;;;;;44.60;6.88;;;;;;;;;;5052977;28;20048;-58
2024/03/30 13:51:45;;;;;;;47.65;7.05;;;;;;;;;;5053176;28;20458;-58
2024/03/30 13:54:13;;;;;;;25.40;5.95;;;;;;;;;;5052570;28;20040;-58
2024/03/30 13:56:39;;;;;;;32.15;6.63;;;;;;;;;;5045098;28;20060;-58
2024/03/30 13:59:06;;;;;;;34.53;6.60;;;;;;;;;;5052794;28;20099;-58
2024/03/30 14:01:32;;;;;;;28.52;6.00;;;;;;;;;;5044638;28;20053;-59
2024/03/30 14:04:00;;;;;;;32.28;5.82;;;;;;;;;;5052285;28;20398;-58
2024/03/30 14:06:26;;;;;;;37.40;6.20;;;;;;;;;;5044673;28;20053;-58
2024/03/30 14:08:53;;;;;;;29.10;5.88;;;;;;;;;;5053470;28;20049;-58
2024/03/30 14:11:19;;;;;;;31.05;6.03;;;;;;;;;;5044741;28;20045;-58
2024/03/30 14:13:46;;;;;;;32.55;6.13;;;;;;;;;;5052976;28;20055;-58
2024/03/30 14:16:12;;;;;;;37.95;5.65;;;;;;;;;;5044287;28;20076;-58
2024/03/30 14:18:39;;;;;;;29.15;5.75;;;;;;;;;;5052650;28;20041;-58
2024/03/30 14:21:06;;;;;;;26.25;4.80;;;;;;;;;;5044776;28;20053;-58
2024/03/30 14:23:33;;;;;;;23.90;4.97;;;;;;;;;;5052864;28;20056;-59
2024/03/30 14:25:59;;;;;;;27.30;5.20;;;;;;;;;;5044855;28;20057;-58
2024/03/30 14:28:26;;;;;;;30.52;5.15;;;;;;;;;;5043550;28;20049;-58
2024/03/30 14:30:52;;;;;;;23.15;4.78;;;;;;;;;;5052841;28;20412;-58
2024/03/30 14:33:19;;;;;;;24.75;4.15;;;;;;;;;;5052580;28;20049;-58
2024/03/30 14:35:44;;;;;;;19.80;4.80;;;;;;;;;;5046629;28;20505;-58
2024/03/30 14:38:13;;;;;;;22.48;4.18;;;;;;;;;;5049867;28;20131;-58